Time;durP1;ratioP1;P1;durP2;ratioP2;P2;SDS_P1;SDS_P2;PMS_P1;PMS_P2;Temp;Humidity;BMP_temperature;BMP_pressure;BME280_temperature;BME280_humidity;BME280_pressure;Samples;Min_cycle;Max_cycle;Signal;HPM_P1;HPM_P2
2023/12/30 00:01:37;;;;;;;9.00;2.60;;;7.70;99.90;;;;;;6301253;22;20015;-75
2023/12/30 00:04:03;;;;;;;11.35;2.88;;;7.60;99.90;;;;;;6300883;22;20423;-75
2023/12/30 00:06:29;;;;;;;13.80;2.33;;;7.60;99.90;;;;;;6300730;22;20023;-75
2023/12/30 00:08:54;;;;;;;10.40;2.95;;;7.70;99.90;;;;;;6300705;22;20029;-75
2023/12/30 00:11:20;;;;;;;5.68;1.90;;;7.70;99.90;;;;;;6302314;22;20065;-75
2023/12/30 00:13:46;;;;;;;6.65;2.72;;;7.60;99.90;;;;;;6300805;22;20019;-75
2023/12/30 00:16:13;;;;;;;5.63;2.10;;;7.60;99.90;;;;;;6275083;22;20015;-75
2023/12/30 00:18:39;;;;;;;4.03;1.52;;;7.60;99.90;;;;;;6301128;22;20026;-75
2023/12/30 00:21:05;;;;;;;7.05;1.70;;;7.60;99.90;;;;;;6300696;22;20204;-75
2023/12/30 00:23:30;;;;;;;4.47;1.55;;;7.60;99.90;;;;;;6301071;22;20130;-76
2023/12/30 00:25:56;;;;;;;4.55;1.90;;;7.50;99.90;;;;;;6300388;22;20015;-75
2023/12/30 00:28:22;;;;;;;5.45;1.92;;;7.70;99.90;;;;;;6300262;22;20504;-75
2023/12/30 00:30:48;;;;;;;6.30;1.70;;;7.70;99.90;;;;;;6300536;22;20089;-75
2023/12/30 00:33:14;;;;;;;7.05;1.63;;;7.70;99.90;;;;;;6300341;22;20030;-76
2023/12/30 00:35:40;;;;;;;8.40;1.90;;;7.60;99.90;;;;;;6274496;22;20068;-75
2023/12/30 00:38:06;;;;;;;6.85;1.77;;;7.60;99.90;;;;;;6299347;22;20110;-75
2023/12/30 00:40:31;;;;;;;6.47;1.83;;;7.50;99.90;;;;;;6299965;22;20064;-75
2023/12/30 00:42:57;;;;;;;11.93;3.15;;;7.60;99.90;;;;;;6274285;22;20336;-75
2023/12/30 00:45:23;;;;;;;6.70;1.98;;;7.60;99.90;;;;;;6300148;22;20029;-75
2023/12/30 00:47:49;;;;;;;9.68;1.80;;;7.60;99.90;;;;;;6299979;22;20011;-75
2023/12/30 00:50:14;;;;;;;9.07;2.47;;;7.50;99.90;;;;;;6300031;22;20084;-75
2023/12/30 00:52:40;;;;;;;10.73;1.63;;;7.50;99.90;;;;;;6273912;22;20026;-75
2023/12/30 00:55:07;;;;;;;8.93;2.00;;;7.60;99.90;;;;;;6299525;22;20086;-75
2023/12/30 00:57:32;;;;;;;8.48;1.75;;;7.50;99.90;;;;;;6299976;22;20018;-75
2023/12/30 00:59:58;;;;;;;8.25;1.95;;;7.40;99.90;;;;;;6299904;22;20027;-75
2023/12/30 01:02:24;;;;;;;4.97;1.92;;;7.40;99.90;;;;;;6299914;22;20351;-75
2023/12/30 01:04:50;;;;;;;8.00;2.35;;;7.50;99.90;;;;;;6299935;22;20023;-75
2023/12/30 01:07:16;;;;;;;8.48;1.95;;;7.50;99.90;;;;;;6301996;22;20015;-75
2023/12/30 01:09:41;;;;;;;9.73;2.05;;;7.50;99.90;;;;;;6299675;22;20041;-75
2023/12/30 01:12:07;;;;;;;5.70;1.83;;;7.50;99.90;;;;;;6300209;22;20033;-75
2023/12/30 01:14:33;;;;;;;7.72;1.77;;;7.50;99.90;;;;;;6300243;22;20007;-75
2023/12/30 01:16:59;;;;;;;7.45;2.97;;;7.40;99.90;;;;;;6300291;22;20202;-75
2023/12/30 01:19:25;;;;;;;6.70;1.77;;;7.40;99.90;;;;;;6300101;22;20096;-75
2023/12/30 01:21:50;;;;;;;5.85;1.90;;;7.40;99.90;;;;;;6274434;22;20015;-75
2023/12/30 01:24:16;;;;;;;10.57;2.58;;;7.40;99.90;;;;;;6300032;22;20454;-75
2023/12/30 01:26:42;;;;;;;4.88;1.77;;;7.40;99.90;;;;;;6300865;22;20121;-75
2023/12/30 01:29:08;;;;;;;4.28;1.52;;;7.40;99.90;;;;;;6276507;22;20030;-75
2023/12/30 01:31:36;;;;;;;7.82;1.70;;;7.40;99.90;;;;;;6301839;22;20094;-75
2023/12/30 01:34:02;;;;;;;9.80;2.00;;;7.20;99.90;;;;;;6300148;22;20015;-75
2023/12/30 01:36:28;;;;;;;5.85;1.80;;;7.40;99.90;;;;;;6299935;22;20019;-75
2023/12/30 01:38:54;;;;;;;8.77;2.33;;;7.40;99.90;;;;;;6273704;22;20328;-75
2023/12/30 01:41:20;;;;;;;9.35;2.40;;;7.40;99.90;;;;;;6299336;22;20026;-75
2023/12/30 01:43:45;;;;;;;8.95;1.90;;;7.30;99.90;;;;;;6273753;22;20019;-75
2023/12/30 01:46:12;;;;;;;6.32;1.55;;;7.30;99.90;;;;;;6299609;22;20021;-75
2023/12/30 01:48:38;;;;;;;6.10;1.40;;;7.30;99.90;;;;;;6299353;22;20019;-75
2023/12/30 01:51:07;;;;;;;7.07;1.98;;;7.30;99.90;;;;;;6299402;22;20018;-75
2023/12/30 01:53:35;;;;;;;5.75;1.70;;;7.40;99.90;;;;;;6273092;22;20019;-75
2023/12/30 01:56:01;;;;;;;7.65;1.45;;;7.30;99.90;;;;;;6274687;22;20097;-75
2023/12/30 01:58:27;;;;;;;6.13;1.60;;;7.40;99.90;;;;;;6302872;22;20011;-75
2023/12/30 02:00:55;;;;;;;10.48;1.88;;;7.40;99.90;;;;;;6302943;22;20110;-74
2023/12/30 02:03:21;;;;;;;8.30;2.55;;;7.30;99.90;;;;;;6277025;22;20125;-75
2023/12/30 02:05:47;;;;;;;5.82;2.03;;;7.30;99.90;;;;;;6303973;22;20348;-75
2023/12/30 02:08:17;;;;;;;10.68;2.55;;;7.30;99.90;;;;;;6302153;22;20011;-74
2023/12/30 02:10:43;;;;;;;10.32;1.77;;;7.30;99.90;;;;;;6302483;22;20011;-75
2023/12/30 02:13:10;;;;;;;5.68;1.80;;;7.30;99.90;;;;;;6276715;22;20026;-75
2023/12/30 02:15:36;;;;;;;12.02;2.20;;;7.30;99.90;;;;;;6302211;22;20015;-75
2023/12/30 02:18:02;;;;;;;10.02;2.05;;;7.30;99.90;;;;;;6302642;22;20366;-75
2023/12/30 02:20:30;;;;;;;11.13;2.03;;;7.30;99.90;;;;;;6302474;22;20160;-75
2023/12/30 02:22:56;;;;;;;4.80;1.90;;;7.30;99.90;;;;;;6301986;22;20019;-75
2023/12/30 02:25:22;;;;;;;5.72;2.22;;;7.30;99.90;;;;;;6277117;22;20022;-74
2023/12/30 02:27:48;;;;;;;4.50;2.13;;;7.30;99.90;;;;;;6277014;22;20089;-75
2023/12/30 02:30:14;;;;;;;4.50;1.50;;;7.30;99.90;;;;;;6302530;22;20080;-75
2023/12/30 02:32:40;;;;;;;5.38;1.75;;;7.30;99.90;;;;;;6302652;22;20019;-75
2023/12/30 02:35:06;;;;;;;8.35;2.20;;;7.30;99.90;;;;;;6302491;22;20011;-74
2023/12/30 02:37:32;;;;;;;8.10;1.83;;;7.20;99.90;;;;;;6302469;22;20356;-74
2023/12/30 02:39:58;;;;;;;7.20;2.33;;;7.10;99.90;;;;;;6302739;22;20015;-74
2023/12/30 02:42:24;;;;;;;9.30;1.95;;;7.20;99.90;;;;;;6302528;22;20017;-75
2023/12/30 02:44:51;;;;;;;8.57;2.20;;;7.10;99.90;;;;;;6302483;22;20039;-75
2023/12/30 02:47:17;;;;;;;9.35;2.78;;;7.10;99.90;;;;;;6277062;22;20019;-75
2023/12/30 02:49:44;;;;;;;8.77;2.10;;;7.20;99.90;;;;;;6302504;22;20475;-75
2023/12/30 02:52:10;;;;;;;9.30;2.05;;;7.20;99.90;;;;;;6301943;22;20104;-75
2023/12/30 02:54:36;;;;;;;10.63;1.90;;;7.10;99.90;;;;;;6302936;22;20037;-75
2023/12/30 02:57:02;;;;;;;7.55;1.88;;;7.10;99.90;;;;;;6304762;22;20026;-75
2023/12/30 02:59:32;;;;;;;12.88;2.17;;;7.10;99.90;;;;;;6277069;22;20087;-75
2023/12/30 03:01:57;;;;;;;9.43;1.77;;;7.10;99.90;;;;;;6302469;22;20090;-75
2023/12/30 03:04:23;;;;;;;10.20;2.50;;;7.10;99.90;;;;;;6302109;22;20043;-75
2023/12/30 03:06:49;;;;;;;10.60;2.63;;;7.10;99.90;;;;;;6301692;22;20018;-75
2023/12/30 03:09:15;;;;;;;5.85;1.90;;;7.10;99.90;;;;;;6299837;22;20108;-75
2023/12/30 03:11:42;;;;;;;7.10;2.20;;;7.10;99.90;;;;;;6275106;22;20008;-75
2023/12/30 03:14:08;;;;;;;5.50;1.70;;;7.20;99.90;;;;;;6300251;22;20018;-75
2023/12/30 03:16:34;;;;;;;7.80;2.00;;;7.00;99.90;;;;;;6300311;22;20019;-75
2023/12/30 03:19:00;;;;;;;6.68;1.58;;;7.10;99.90;;;;;;6300689;22;20019;-75
2023/12/30 03:21:26;;;;;;;6.20;1.80;;;7.00;99.90;;;;;;6274143;22;20504;-75
2023/12/30 03:23:51;;;;;;;10.48;2.40;;;7.00;99.90;;;;;;6300451;22;20022;-75
2023/12/30 03:26:17;;;;;;;9.43;1.73;;;7.00;99.90;;;;;;6300534;22;20049;-75
2023/12/30 03:28:43;;;;;;;6.70;1.83;;;7.10;99.90;;;;;;6274717;22;20015;-75
2023/12/30 03:31:23;;;;;;;8.25;1.90;;;7.10;99.90;;;;;;6300568;22;20133;-74
2023/12/30 03:33:49;;;;;;;9.25;2.00;;;7.00;99.90;;;;;;6300558;22;20098;-75
2023/12/30 03:36:14;;;;;;;9.73;2.03;;;7.00;99.90;;;;;;6299935;22;20575;-75
2023/12/30 03:38:40;;;;;;;7.00;1.60;;;7.00;99.90;;;;;;6300430;22;20051;-75
2023/12/30 03:41:06;;;;;;;7.25;1.92;;;7.00;99.90;;;;;;6300127;22;20019;-74
2023/12/30 03:43:32;;;;;;;5.68;2.55;;;7.00;99.90;;;;;;6274591;22;20015;-74
2023/12/30 03:45:58;;;;;;;9.63;1.92;;;7.00;99.90;;;;;;6300355;22;20055;-74
2023/12/30 03:48:23;;;;;;;6.07;1.90;;;6.90;99.90;;;;;;6300106;22;20019;-74
2023/12/30 03:50:49;;;;;;;8.35;1.95;;;7.00;99.90;;;;;;6300050;22;20011;-74
2023/12/30 03:53:15;;;;;;;12.80;2.72;;;7.00;99.90;;;;;;6274283;22;20033;-75
2023/12/30 03:55:40;;;;;;;5.75;1.85;;;6.90;99.90;;;;;;6300340;22;20023;-75
2023/12/30 03:58:06;;;;;;;9.15;1.77;;;6.80;99.90;;;;;;6302277;22;20090;-74
2023/12/30 04:00:32;;;;;;;13.20;2.15;;;6.80;99.90;;;;;;6302902;22;20091;-74
2023/12/30 04:02:57;;;;;;;5.22;1.88;;;6.70;99.90;;;;;;6300205;22;20107;-74
2023/12/30 04:05:23;;;;;;;7.85;2.05;;;6.70;99.90;;;;;;6274327;22;20015;-74
2023/12/30 04:07:50;;;;;;;7.55;2.40;;;6.70;99.90;;;;;;6300121;22;20011;-75
2023/12/30 04:10:17;;;;;;;11.73;3.13;;;6.70;99.90;;;;;;6274178;22;20172;-75
2023/12/30 04:12:43;;;;;;;4.53;1.83;;;6.70;99.90;;;;;;6274340;22;20007;-74
2023/12/30 04:15:10;;;;;;;9.93;1.75;;;6.70;99.90;;;;;;6302198;22;20390;-75
2023/12/30 04:17:36;;;;;;;10.50;1.85;;;6.70;99.90;;;;;;6300018;22;20019;-74
2023/12/30 04:20:02;;;;;;;9.13;2.55;;;6.60;99.90;;;;;;6299487;22;20042;-74
2023/12/30 04:22:28;;;;;;;10.73;2.85;;;6.70;99.90;;;;;;6299603;22;20011;-74
2023/12/30 04:24:56;;;;;;;14.82;2.97;;;6.60;99.90;;;;;;6301939;22;20095;-74
2023/12/30 04:27:21;;;;;;;7.93;2.13;;;6.60;99.90;;;;;;6299979;22;20522;-74
2023/12/30 04:29:47;;;;;;;8.75;2.17;;;6.60;99.90;;;;;;6300067;22;20106;-74
2023/12/30 04:32:13;;;;;;;8.80;1.80;;;6.60;99.90;;;;;;6300146;22;20015;-75
2023/12/30 04:34:38;;;;;;;10.38;2.30;;;6.60;99.90;;;;;;6300895;22;20097;-75
2023/12/30 04:37:04;;;;;;;7.50;1.88;;;6.50;99.90;;;;;;6300345;22;20436;-75
2023/12/30 04:39:30;;;;;;;10.82;2.50;;;6.50;99.90;;;;;;6300288;22;20026;-75
2023/12/30 04:41:56;;;;;;;9.73;2.00;;;6.50;99.90;;;;;;6299854;22;20066;-74
2023/12/30 04:44:21;;;;;;;2.85;2.13;;;6.60;99.90;;;;;;6299772;22;20047;-74
2023/12/30 04:46:47;;;;;;;7.88;2.00;;;6.60;99.90;;;;;;6273797;22;20098;-74
2023/12/30 04:49:13;;;;;;;8.57;1.90;;;6.50;99.90;;;;;;6299852;22;20076;-74
2023/12/30 04:51:39;;;;;;;17.02;2.25;;;6.60;99.90;;;;;;6299542;22;20023;-74
2023/12/30 04:54:05;;;;;;;5.53;1.50;;;6.50;99.90;;;;;;6273749;22;20097;-75
2023/12/30 04:56:31;;;;;;;12.23;2.75;;;6.50;99.90;;;;;;6299656;22;20045;-74
2023/12/30 04:58:58;;;;;;;7.80;1.80;;;6.50;99.90;;;;;;6299392;22;20015;-75
2023/12/30 05:01:23;;;;;;;8.60;2.20;;;6.50;99.90;;;;;;6299955;22;20007;-76
2023/12/30 05:03:50;;;;;;;7.93;2.38;;;6.50;99.90;;;;;;6301301;22;20098;-76
2023/12/30 05:06:25;;;;;;;9.38;1.83;;;6.50;99.90;;;;;;6299271;22;20015;-76
2023/12/30 05:08:52;;;;;;;9.20;2.10;;;6.40;99.90;;;;;;6273490;22;20302;-76
2023/12/30 05:11:19;;;;;;;8.30;1.75;;;6.50;99.90;;;;;;6301284;22;20011;-75
2023/12/30 05:13:46;;;;;;;5.07;1.85;;;6.50;99.90;;;;;;6301538;22;20067;-75
2023/12/30 05:16:12;;;;;;;11.15;2.45;;;6.50;99.90;;;;;;6299320;22;20447;-75
2023/12/30 05:18:37;;;;;;;5.80;1.90;;;6.50;99.90;;;;;;6299629;22;20015;-75
2023/12/30 05:21:03;;;;;;;7.57;1.75;;;6.40;99.90;;;;;;6300998;22;20018;-75
2023/12/30 05:23:32;;;;;;;6.25;1.77;;;6.40;99.90;;;;;;6299737;22;20019;-75
2023/12/30 05:25:57;;;;;;;16.52;2.22;;;6.50;99.90;;;;;;6299409;22;20022;-75
2023/12/30 05:28:23;;;;;;;14.20;2.55;;;6.40;99.90;;;;;;6299255;22;20327;-75
2023/12/30 05:30:49;;;;;;;7.80;1.77;;;6.40;99.90;;;;;;6298890;22;20084;-75
2023/12/30 05:33:15;;;;;;;6.50;1.90;;;6.40;99.90;;;;;;6299315;22;20038;-76
2023/12/30 05:35:40;;;;;;;14.45;2.35;;;6.40;99.90;;;;;;6299429;22;20424;-75
2023/12/30 05:38:06;;;;;;;11.25;4.00;;;6.40;99.90;;;;;;6299499;22;20015;-76
2023/12/30 05:40:32;;;;;;;9.18;2.33;;;6.40;99.90;;;;;;6299326;22;20018;-75
2023/12/30 05:42:57;;;;;;;11.43;2.35;;;6.30;99.90;;;;;;6301613;22;20407;-75
2023/12/30 05:45:23;;;;;;;9.00;1.80;;;6.40;99.90;;;;;;6299130;22;20007;-76
2023/12/30 05:47:49;;;;;;;9.77;2.13;;;6.40;99.90;;;;;;6301677;22;20077;-76
2023/12/30 05:50:14;;;;;;;6.90;2.33;;;6.40;99.90;;;;;;6301487;22;20498;-76
2023/12/30 05:52:40;;;;;;;16.95;2.00;;;6.40;99.90;;;;;;6301247;22;20039;-76
2023/12/30 05:55:06;;;;;;;7.50;1.98;;;6.40;99.90;;;;;;6301908;22;20019;-76
2023/12/30 05:57:32;;;;;;;9.50;1.85;;;6.40;99.90;;;;;;6301455;22;20049;-75
2023/12/30 05:59:58;;;;;;;14.00;2.88;;;6.40;99.90;;;;;;6273864;22;20020;-76
2023/12/30 06:02:23;;;;;;;9.57;2.63;;;6.40;99.90;;;;;;6299604;22;20051;-76
2023/12/30 06:04:49;;;;;;;7.32;2.45;;;6.40;99.90;;;;;;6299529;22;20011;-76
2023/12/30 06:07:15;;;;;;;12.98;2.78;;;6.40;99.90;;;;;;6299513;22;20042;-76
2023/12/30 06:09:44;;;;;;;8.60;2.20;;;6.40;99.90;;;;;;6299355;22;20019;-76
2023/12/30 06:12:10;;;;;;;6.68;2.00;;;6.40;99.90;;;;;;6299267;22;20125;-76
2023/12/30 06:14:36;;;;;;;6.25;1.70;;;6.40;99.90;;;;;;6298725;22;20042;-76
2023/12/30 06:17:02;;;;;;;7.18;2.00;;;6.40;99.90;;;;;;6299107;22;20321;-76
2023/12/30 06:19:28;;;;;;;5.05;1.92;;;6.40;99.90;;;;;;6298990;22;20019;-76
2023/12/30 06:21:54;;;;;;;6.45;2.03;;;6.50;99.90;;;;;;6298834;22;20064;-76
2023/12/30 06:24:20;;;;;;;12.43;2.45;;;6.50;99.90;;;;;;6273508;22;20024;-76
2023/12/30 06:26:46;;;;;;;10.82;2.95;;;6.40;99.90;;;;;;6299297;22;20426;-76
2023/12/30 06:29:12;;;;;;;6.00;2.30;;;6.40;99.90;;;;;;6299023;22;20011;-76
2023/12/30 06:31:42;;;;;;;10.95;2.70;;;6.30;99.90;;;;;;6299533;22;20086;-76
2023/12/30 06:34:09;;;;;;;9.30;2.28;;;6.20;99.90;;;;;;6273895;22;20015;-76
2023/12/30 06:36:35;;;;;;;9.05;1.85;;;6.40;99.90;;;;;;6299405;22;20070;-77
2023/12/30 06:39:01;;;;;;;7.95;2.30;;;6.30;99.90;;;;;;6299419;22;20451;-76
2023/12/30 06:41:27;;;;;;;13.70;1.98;;;6.30;99.90;;;;;;6273466;22;20030;-76
2023/12/30 06:43:52;;;;;;;5.25;2.05;;;6.30;99.90;;;;;;6301022;22;20039;-76
2023/12/30 06:46:22;;;;;;;7.90;1.77;;;6.20;99.90;;;;;;6275852;22;20072;-76
2023/12/30 06:48:48;;;;;;;5.72;1.90;;;6.20;99.90;;;;;;6303722;22;20276;-76
2023/12/30 06:51:14;;;;;;;13.32;1.65;;;6.20;99.90;;;;;;6301156;22;20011;-76
2023/12/30 06:53:39;;;;;;;13.30;2.15;;;6.20;99.90;;;;;;6300888;22;20404;-76
2023/12/30 06:56:08;;;;;;;12.52;1.90;;;6.20;99.90;;;;;;6302604;22;20062;-76
2023/12/30 06:58:34;;;;;;;11.13;1.98;;;6.20;99.90;;;;;;6275048;22;20057;-76
2023/12/30 07:01:00;;;;;;;6.88;2.20;;;6.20;99.90;;;;;;6303466;22;20344;-76
2023/12/30 07:03:26;;;;;;;9.13;2.25;;;6.20;99.90;;;;;;6301293;22;20046;-76
2023/12/30 07:05:51;;;;;;;8.77;2.00;;;6.20;99.90;;;;;;6301847;22;20030;-76
2023/12/30 07:08:17;;;;;;;13.45;2.78;;;6.20;99.90;;;;;;6300990;22;20015;-76
2023/12/30 07:10:43;;;;;;;9.35;2.33;;;6.20;99.90;;;;;;6300948;22;20015;-75
2023/12/30 07:13:09;;;;;;;9.30;2.28;;;6.10;99.90;;;;;;6300679;22;20454;-76
2023/12/30 07:15:34;;;;;;;15.00;2.53;;;6.20;99.90;;;;;;6275080;22;20015;-76
2023/12/30 07:18:00;;;;;;;7.13;1.80;;;6.10;99.90;;;;;;6303951;22;20011;-77
2023/12/30 07:20:26;;;;;;;9.52;1.77;;;6.20;99.90;;;;;;6301834;22;20022;-78
2023/12/30 07:22:56;;;;;;;11.20;2.13;;;6.10;99.90;;;;;;6275754;22;20015;-78
2023/12/30 07:25:22;;;;;;;10.00;3.03;;;6.10;99.90;;;;;;6275410;22;20033;-77
2023/12/30 07:27:49;;;;;;;12.23;2.40;;;6.00;99.90;;;;;;6274812;22;20109;-76
2023/12/30 07:30:15;;;;;;;14.07;3.13;;;6.10;99.90;;;;;;6274760;22;20124;-78
2023/12/30 07:32:40;;;;;;;13.23;2.67;;;6.20;99.90;;;;;;6304594;22;20061;-79
2023/12/30 07:35:07;;;;;;;6.45;2.60;;;6.10;99.90;;;;;;6281750;22;20015;-79
2023/12/30 07:37:33;;;;;;;9.68;2.33;;;6.10;99.90;;;;;;6281395;22;20066;-79
2023/12/30 07:40:01;;;;;;;10.23;2.90;;;6.00;99.90;;;;;;6281401;22;20019;-79
2023/12/30 07:42:26;;;;;;;17.52;2.80;;;6.10;99.90;;;;;;6280708;22;20045;-78
2023/12/30 07:44:53;;;;;;;10.68;3.08;;;6.10;99.90;;;;;;6302436;22;20019;-78
2023/12/30 07:47:19;;;;;;;7.85;2.72;;;6.00;99.90;;;;;;6300304;22;20116;-78
2023/12/30 07:49:46;;;;;;;17.20;3.28;;;6.10;99.90;;;;;;6274037;22;20525;-78
2023/12/30 07:52:12;;;;;;;8.55;2.60;;;6.10;99.90;;;;;;6274127;22;20537;-78
2023/12/30 07:54:38;;;;;;;11.95;4.35;;;6.10;99.90;;;;;;6299948;22;20047;-78
2023/12/30 07:57:04;;;;;;;11.65;4.57;;;6.10;99.90;;;;;;6299729;22;20093;-78
2023/12/30 07:59:30;;;;;;;13.80;3.97;;;6.10;99.90;;;;;;6300123;22;20015;-78
2023/12/30 08:01:58;;;;;;;15.48;3.90;;;6.10;99.90;;;;;;6300593;22;20023;-78
2023/12/30 08:04:24;;;;;;;17.63;5.95;;;6.10;99.90;;;;;;6300560;22;20015;-73
2023/12/30 08:06:50;;;;;;;9.43;3.85;;;6.10;99.90;;;;;;6300448;22;20050;-74
2023/12/30 08:09:16;;;;;;;10.07;3.10;;;6.20;99.90;;;;;;6300394;22;20320;-73
2023/12/30 08:11:43;;;;;;;10.95;2.25;;;6.10;99.90;;;;;;6302088;22;20011;-74
2023/12/30 08:14:09;;;;;;;7.82;2.10;;;6.10;99.90;;;;;;6300375;22;20527;-73
2023/12/30 08:16:35;;;;;;;3.85;1.70;;;6.10;99.90;;;;;;6274871;22;20015;-73
2023/12/30 08:19:02;;;;;;;12.02;2.53;;;6.10;99.90;;;;;;6300518;22;20027;-74
2023/12/30 08:21:28;;;;;;;13.65;2.45;;;6.20;99.90;;;;;;6274345;22;20053;-73
2023/12/30 08:23:56;;;;;;;8.05;2.03;;;6.10;99.90;;;;;;6302042;22;20385;-73
2023/12/30 08:26:22;;;;;;;16.15;1.92;;;6.10;99.90;;;;;;6299813;22;20471;-73
2023/12/30 08:28:48;;;;;;;12.57;1.95;;;6.20;99.90;;;;;;6302302;22;20073;-73
2023/12/30 08:31:14;;;;;;;7.15;1.98;;;6.10;99.90;;;;;;6302519;22;20036;-73
2023/12/30 08:33:40;;;;;;;14.30;2.00;;;6.10;99.90;;;;;;6300281;22;20459;-73
2023/12/30 08:36:06;;;;;;;7.13;2.08;;;6.10;99.90;;;;;;6300131;22;20019;-73
2023/12/30 08:38:32;;;;;;;11.07;2.20;;;6.10;99.90;;;;;;6302245;22;20082;-73
2023/12/30 08:40:59;;;;;;;10.60;2.50;;;6.10;99.90;;;;;;6299790;22;20023;-73
2023/12/30 08:43:24;;;;;;;7.57;2.40;;;6.10;99.90;;;;;;6274278;22;20435;-73
2023/12/30 08:45:50;;;;;;;10.50;2.58;;;6.10;99.90;;;;;;6301877;22;20011;-73
2023/12/30 08:48:16;;;;;;;9.32;2.20;;;6.20;99.90;;;;;;6299768;22;20019;-73
2023/12/30 08:50:44;;;;;;;14.85;3.38;;;6.20;99.90;;;;;;6299889;22;20443;-73
2023/12/30 08:53:11;;;;;;;7.90;2.70;;;6.20;99.90;;;;;;6299537;22;20400;-73
2023/12/30 08:55:36;;;;;;;12.80;2.92;;;6.20;99.90;;;;;;6299813;22;20023;-73
2023/12/30 08:58:02;;;;;;;11.98;2.80;;;6.20;99.90;;;;;;6273885;22;20454;-73
2023/12/30 09:00:28;;;;;;;7.30;2.97;;;6.20;99.90;;;;;;6274145;22;20024;-73
2023/12/30 09:02:55;;;;;;;13.57;3.28;;;6.30;99.90;;;;;;6299682;22;20023;-73
2023/12/30 09:05:21;;;;;;;14.95;3.13;;;6.30;99.90;;;;;;6299333;22;20076;-73
2023/12/30 09:07:51;;;;;;;14.65;3.50;;;6.20;99.90;;;;;;6299364;22;20011;-73
2023/12/30 09:10:17;;;;;;;15.20;4.57;;;6.20;99.90;;;;;;6299510;22;20011;-73
2023/12/30 09:12:44;;;;;;;12.77;4.63;;;6.30;99.90;;;;;;6273687;22;20021;-73
2023/12/30 09:15:10;;;;;;;18.15;5.22;;;6.30;99.90;;;;;;6301519;22;20061;-73
2023/12/30 09:17:36;;;;;;;13.73;4.80;;;6.20;99.90;;;;;;6300278;22;20022;-73
2023/12/30 09:20:03;;;;;;;15.32;5.32;;;6.20;99.90;;;;;;6302382;22;20098;-73
2023/12/30 09:22:29;;;;;;;16.30;5.47;;;6.30;99.90;;;;;;6301655;22;20019;-73
2023/12/30 09:24:54;;;;;;;19.33;5.10;;;6.30;99.90;;;;;;6302428;22;20439;-73
2023/12/30 09:27:21;;;;;;;13.20;5.78;;;6.30;99.90;;;;;;6302224;22;20066;-73
2023/12/30 09:29:47;;;;;;;22.73;6.40;;;6.30;99.90;;;;;;6300576;22;20019;-73
2023/12/30 09:32:13;;;;;;;15.93;6.38;;;6.40;99.90;;;;;;6300566;22;20037;-73
2023/12/30 09:34:38;;;;;;;18.13;6.45;;;6.40;99.90;;;;;;6300297;22;20473;-73
2023/12/30 09:37:04;;;;;;;16.92;5.55;;;6.30;99.90;;;;;;6274203;22;20050;-73
2023/12/30 09:39:30;;;;;;;14.45;6.25;;;6.40;99.90;;;;;;6274397;22;20077;-72
2023/12/30 09:41:56;;;;;;;15.43;5.28;;;6.50;99.90;;;;;;6300208;22;20027;-73
2023/12/30 09:44:25;;;;;;;19.02;6.30;;;6.40;99.90;;;;;;6299279;22;20046;-72
2023/12/30 09:46:52;;;;;;;15.35;5.97;;;6.40;99.90;;;;;;6300609;22;20437;-75
2023/12/30 09:49:19;;;;;;;20.83;6.50;;;6.50;99.90;;;;;;6299953;22;20039;-74
2023/12/30 09:51:45;;;;;;;20.15;6.75;;;6.60;99.90;;;;;;6300257;22;20022;-74
2023/12/30 09:54:11;;;;;;;20.67;7.57;;;6.60;99.90;;;;;;6300325;22;20023;-74
2023/12/30 09:56:39;;;;;;;20.70;7.50;;;6.80;99.90;;;;;;6300500;22;20343;-74
2023/12/30 09:59:06;;;;;;;18.15;8.25;;;6.80;99.90;;;;;;6299912;22;20445;-74
2023/12/30 10:01:32;;;;;;;13.23;6.32;;;6.80;99.90;;;;;;6302249;22;20016;-74
2023/12/30 10:03:58;;;;;;;17.70;6.90;;;6.80;99.90;;;;;;6301378;22;20043;-74
2023/12/30 10:06:25;;;;;;;16.13;6.60;;;6.90;99.90;;;;;;6301529;22;20019;-74
2023/12/30 10:08:51;;;;;;;20.48;7.05;;;6.90;99.90;;;;;;6301805;22;20019;-74
2023/12/30 10:11:17;;;;;;;17.35;6.68;;;7.00;99.90;;;;;;6299618;22;20530;-73
2023/12/30 10:13:45;;;;;;;14.95;6.90;;;7.00;99.90;;;;;;6299726;22;20051;-73
2023/12/30 10:16:12;;;;;;;24.98;6.75;;;7.10;99.90;;;;;;6274167;22;20038;-73
2023/12/30 10:18:39;;;;;;;23.05;7.13;;;7.10;99.90;;;;;;6301745;22;20053;-73
2023/12/30 10:21:06;;;;;;;16.02;6.20;;;7.10;99.90;;;;;;6275511;22;20055;-74
2023/12/30 10:23:33;;;;;;;19.95;6.13;;;7.10;99.90;;;;;;6301860;22;20018;-74
2023/12/30 10:26:00;;;;;;;16.83;6.75;;;7.20;99.90;;;;;;6301902;22;20477;-73
2023/12/30 10:28:25;;;;;;;20.05;5.28;;;7.20;99.90;;;;;;6301842;22;20023;-73
2023/12/30 10:31:08;;;;;;;13.88;5.38;;;7.20;99.90;;;;;;6303916;22;20095;-74
2023/12/30 10:33:35;;;;;;;11.82;4.75;;;7.30;99.90;;;;;;6301899;22;20038;-73
2023/12/30 10:36:05;;;;;;;9.90;3.65;;;7.30;99.90;;;;;;6301709;22;20017;-73
2023/12/30 10:38:32;;;;;;;14.75;3.63;;;7.40;99.90;;;;;;6301875;22;20023;-74
2023/12/30 10:40:58;;;;;;;19.58;4.20;;;7.40;99.90;;;;;;6276041;22;20055;-73
2023/12/30 10:43:24;;;;;;;18.35;4.15;;;7.40;99.90;;;;;;6301881;22;20015;-74
2023/12/30 10:46:00;;;;;;;8.13;4.05;;;7.40;99.90;;;;;;6302046;22;20094;-73
2023/12/30 10:48:33;;;;;;;11.05;3.45;;;7.50;99.90;;;;;;6302305;22;20054;-74
2023/12/30 10:51:01;;;;;;;10.05;3.00;;;7.50;99.90;;;;;;6276365;22;20049;-74
2023/12/30 10:53:31;;;;;;;10.13;2.95;;;7.60;99.90;;;;;;6302676;22;20019;-73
2023/12/30 10:56:03;;;;;;;10.40;3.53;;;7.60;99.90;;;;;;6302211;22;20015;-73
2023/12/30 10:58:40;;;;;;;12.02;3.15;;;7.70;99.90;;;;;;6301751;22;20019;-73
2023/12/30 11:01:06;;;;;;;11.40;3.05;;;7.60;99.90;;;;;;6301940;22;20440;-72
2023/12/30 11:03:33;;;;;;;13.48;3.17;;;7.60;99.90;;;;;;6301720;22;20046;-73
2023/12/30 11:06:23;;;;;;;16.40;3.10;;;7.60;99.90;;;;;;6301386;22;20019;-73
2023/12/30 11:08:52;;;;;;;13.93;3.22;;;7.60;99.90;;;;;;6301786;22;20019;-74
2023/12/30 11:11:19;;;;;;;11.07;2.97;;;7.70;99.90;;;;;;6301662;22;20022;-73
2023/12/30 11:13:45;;;;;;;13.63;3.08;;;7.70;99.90;;;;;;6302028;22;20010;-73
2023/12/30 11:16:19;;;;;;;11.57;3.75;;;7.70;99.90;;;;;;6303706;22;20019;-73
2023/12/30 11:18:50;;;;;;;16.88;3.83;;;7.80;99.90;;;;;;6275848;22;20049;-73
2023/12/30 11:21:43;;;;;;;8.35;2.85;;;7.90;99.90;;;;;;6301304;22;20014;-73
2023/12/30 11:24:20;;;;;;;9.98;3.83;;;7.90;99.90;;;;;;6301569;22;20023;-73
2023/12/30 11:26:46;;;;;;;14.60;3.58;;;7.90;99.90;;;;;;6301617;22;20045;-73
2023/12/30 11:29:16;;;;;;;11.80;3.17;;;7.90;99.90;;;;;;6275020;22;20019;-73
2023/12/30 11:31:43;;;;;;;11.27;3.53;;;8.00;99.90;;;;;;6301518;22;20022;-73
2023/12/30 11:34:10;;;;;;;9.30;3.08;;;8.00;99.90;;;;;;6301126;22;20019;-73
2023/12/30 11:36:36;;;;;;;11.07;4.07;;;8.00;99.90;;;;;;6301447;22;20008;-73
2023/12/30 11:39:03;;;;;;;12.55;3.47;;;8.00;99.90;;;;;;6301438;22;20093;-73
2023/12/30 11:41:30;;;;;;;14.10;2.95;;;8.00;99.90;;;;;;6301647;22;20019;-73
2023/12/30 11:43:58;;;;;;;7.00;2.72;;;8.00;99.90;;;;;;6301765;22;20046;-73
2023/12/30 11:46:26;;;;;;;16.48;3.20;;;8.00;99.90;;;;;;6301660;22;20048;-73
2023/12/30 11:48:52;;;;;;;11.43;2.88;;;8.00;99.90;;;;;;6301434;22;20054;-76
2023/12/30 11:51:29;;;;;;;13.15;3.22;;;8.00;99.90;;;;;;6301470;22;20015;-77
2023/12/30 11:53:55;;;;;;;7.18;2.75;;;8.10;99.90;;;;;;6301302;22;20484;-78
2023/12/30 11:56:22;;;;;;;15.70;3.83;;;8.00;99.90;;;;;;6275576;22;20076;-79
2023/12/30 11:58:51;;;;;;;12.45;3.65;;;8.00;99.90;;;;;;6275930;22;20023;-78
2023/12/30 12:01:18;;;;;;;9.73;3.40;;;8.10;99.90;;;;;;6301427;22;20144;-75
2023/12/30 12:03:44;;;;;;;13.02;3.42;;;8.10;99.90;;;;;;6275954;22;20344;-77
2023/12/30 12:06:11;;;;;;;13.45;3.40;;;8.10;99.90;;;;;;6275168;22;20015;-76
2023/12/30 12:08:38;;;;;;;12.05;3.63;;;8.10;99.90;;;;;;6301184;22;20030;-78
2023/12/30 12:11:05;;;;;;;14.30;4.18;;;8.10;99.90;;;;;;6302970;22;20313;-76
2023/12/30 12:13:31;;;;;;;9.75;3.28;;;8.10;99.90;;;;;;6275168;22;20015;-77
2023/12/30 12:15:58;;;;;;;14.13;3.70;;;8.10;99.90;;;;;;6275043;22;20333;-77
2023/12/30 12:18:25;;;;;;;11.25;3.25;;;8.10;99.90;;;;;;6274713;22;20613;-78
2023/12/30 12:20:51;;;;;;;10.18;2.58;;;8.10;99.90;;;;;;6274947;22;20073;-75
2023/12/30 12:23:17;;;;;;;12.00;3.25;;;8.10;99.90;;;;;;6300995;22;20015;-78
2023/12/30 12:25:52;;;;;;;9.23;3.70;;;8.10;99.90;;;;;;6300847;22;20043;-78
2023/12/30 12:28:22;;;;;;;23.55;4.45;;;8.10;99.90;;;;;;6274609;22;20777;-78
2023/12/30 12:30:51;;;;;;;13.48;3.95;;;8.10;99.90;;;;;;6302085;22;20027;-77
2023/12/30 12:33:18;;;;;;;16.08;4.00;;;8.20;99.90;;;;;;6300326;22;20065;-77
2023/12/30 12:35:44;;;;;;;15.65;3.92;;;8.10;99.90;;;;;;6274675;22;20019;-77
2023/12/30 12:38:10;;;;;;;14.45;4.35;;;8.20;99.90;;;;;;6300406;22;20034;-77
2023/12/30 12:40:38;;;;;;;18.08;3.97;;;8.20;99.90;;;;;;6274487;22;20015;-77
2023/12/30 12:43:04;;;;;;;12.73;3.90;;;8.20;99.90;;;;;;6300297;22;20051;-77
2023/12/30 12:45:29;;;;;;;16.33;3.53;;;8.20;99.90;;;;;;6300391;22;20343;-77
2023/12/30 12:47:55;;;;;;;24.83;4.93;;;8.20;99.90;;;;;;6275267;22;20111;-77
2023/12/30 12:50:21;;;;;;;16.67;3.90;;;8.30;99.90;;;;;;6275567;22;20579;-77